Time;durP1;ratioP1;P1;durP2;ratioP2;P2;SDS_P1;SDS_P2;PMS_P1;PMS_P2;Temp;Humidity;BMP_temperature;BMP_pressure;BME280_temperature;BME280_humidity;BME280_pressure;Samples;Min_cycle;Max_cycle;Signal;HPM_P1;HPM_P2
2021/01/18 00:01:24;;;;;;;27.33;7.57;;;;;;;;;;5016276;28;20022;-96
2021/01/18 00:03:50;;;;;;;27.93;6.37;;;;;;;;;;5003311;28;20022;-96
2021/01/18 00:06:16;;;;;;;21.17;7.00;;;;;;;;;;5001610;28;20051;-96
2021/01/18 00:08:42;;;;;;;20.77;6.50;;;;;;;;;;5005361;28;20054;-96
2021/01/18 00:11:07;;;;;;;23.97;7.40;;;;;;;;;;5012436;28;20026;-96
2021/01/18 00:13:33;;;;;;;20.33;7.10;;;;;;;;;;5001949;28;20077;-96
2021/01/18 00:15:58;;;;;;;20.07;6.57;;;;;;;;;;5007772;28;20045;-96
2021/01/18 00:18:23;;;;;;;26.80;7.57;;;;;;;;;;5008194;28;20022;-96
2021/01/18 00:20:49;;;;;;;19.97;6.77;;;;;;;;;;5005398;28;20021;-96
2021/01/18 00:23:14;;;;;;;25.43;7.03;;;;;;;;;;5009844;28;20078;-96
2021/01/18 00:25:39;;;;;;;20.07;6.90;;;;;;;;;;5015152;28;20014;-96
2021/01/18 00:28:04;;;;;;;24.70;7.40;;;;;;;;;;4992723;28;20022;-96
2021/01/18 00:30:30;;;;;;;25.80;8.00;;;;;;;;;;4993030;28;20050;-96
2021/01/18 00:32:58;;;;;;;26.00;7.90;;;;;;;;;;5008554;28;20029;-96
2021/01/18 00:35:25;;;;;;;25.90;7.30;;;;;;;;;;5007780;28;20030;-96
2021/01/18 00:37:51;;;;;;;31.47;7.77;;;;;;;;;;4999754;28;20100;-96
2021/01/18 00:40:20;;;;;;;25.00;6.80;;;;;;;;;;5000810;28;20026;-96
2021/01/18 00:42:46;;;;;;;18.40;7.23;;;;;;;;;;5000587;28;20018;-96
2021/01/18 00:45:12;;;;;;;25.47;7.27;;;;;;;;;;4993985;28;20033;-96
2021/01/18 00:47:41;;;;;;;22.13;6.93;;;;;;;;;;5021081;28;20075;-96
2021/01/18 00:50:07;;;;;;;20.70;6.70;;;;;;;;;;5008496;28;20018;-96
2021/01/18 00:52:32;;;;;;;20.10;7.57;;;;;;;;;;5021487;28;20374;-96
2021/01/18 00:54:57;;;;;;;25.50;7.77;;;;;;;;;;5004498;28;20022;-96
2021/01/18 00:57:30;;;;;;;22.27;6.93;;;;;;;;;;5010945;28;20018;-96
2021/01/18 00:59:55;;;;;;;28.60;7.50;;;;;;;;;;5008594;28;20117;-96
2021/01/18 01:02:21;;;;;;;26.83;7.33;;;;;;;;;;5010384;28;20091;-96
2021/01/18 01:04:46;;;;;;;17.80;6.53;;;;;;;;;;5023876;28;20461;-96
2021/01/18 01:07:11;;;;;;;19.93;7.17;;;;;;;;;;5004830;28;20078;-96
2021/01/18 01:09:37;;;;;;;23.30;7.50;;;;;;;;;;5002921;28;20036;-96
2021/01/18 01:12:02;;;;;;;22.83;7.43;;;;;;;;;;5017805;28;20062;-96
2021/01/18 01:14:27;;;;;;;25.83;7.43;;;;;;;;;;5021743;28;20018;-96
2021/01/18 01:16:53;;;;;;;28.50;7.43;;;;;;;;;;5020085;28;20053;-96
2021/01/18 01:19:18;;;;;;;22.03;7.20;;;;;;;;;;4999141;28;20034;-96
2021/01/18 01:21:47;;;;;;;33.53;7.87;;;;;;;;;;4995629;28;20022;-96
2021/01/18 01:24:12;;;;;;;22.57;7.00;;;;;;;;;;5022998;28;20469;-96
2021/01/18 01:26:38;;;;;;;23.93;7.80;;;;;;;;;;4992120;28;20021;-94
2021/01/18 01:29:03;;;;;;;24.87;6.90;;;;;;;;;;5006177;28;20462;-95
2021/01/18 01:31:28;;;;;;;20.97;7.27;;;;;;;;;;5003501;28;20041;-96
2021/01/18 01:33:53;;;;;;;26.03;8.33;;;;;;;;;;4999227;28;20022;-96
2021/01/18 01:36:18;;;;;;;29.47;8.50;;;;;;;;;;4995426;28;20038;-96
2021/01/18 01:38:44;;;;;;;23.03;8.33;;;;;;;;;;4997839;28;20045;-94
2021/01/18 01:41:10;;;;;;;19.70;7.70;;;;;;;;;;4993842;28;20023;-95
2021/01/18 01:43:35;;;;;;;28.97;7.67;;;;;;;;;;4994853;28;20014;-95
2021/01/18 01:46:00;;;;;;;23.83;7.77;;;;;;;;;;4994713;28;20033;-96
2021/01/18 01:48:29;;;;;;;21.83;8.00;;;;;;;;;;5007236;28;20040;-96
2021/01/18 01:50:54;;;;;;;30.13;7.80;;;;;;;;;;5012064;28;20026;-96
2021/01/18 01:53:23;;;;;;;26.70;7.37;;;;;;;;;;4997267;28;20026;-95
2021/01/18 01:55:50;;;;;;;28.17;8.00;;;;;;;;;;5373085;23;20041;-96
2021/01/18 01:58:15;;;;;;;24.93;7.53;;;;;;;;;;5033936;28;20022;-96
2021/01/18 02:00:41;;;;;;;19.27;6.67;;;;;;;;;;5037823;28;20121;-96
2021/01/18 02:03:06;;;;;;;16.87;6.90;;;;;;;;;;5031629;28;20028;-96
2021/01/18 02:05:32;;;;;;;19.87;6.37;;;;;;;;;;5014089;28;20017;-95
2021/01/18 02:08:01;;;;;;;21.50;7.40;;;;;;;;;;5019360;28;20056;-96
2021/01/18 02:10:26;;;;;;;20.07;6.77;;;;;;;;;;5014171;28;20022;-96
2021/01/18 02:12:54;;;;;;;18.80;7.07;;;;;;;;;;5023379;28;20049;-96
2021/01/18 02:15:39;;;;;;;26.73;7.43;;;;;;;;;;5017894;28;20029;-96
2021/01/18 02:18:20;;;;;;;28.07;7.63;;;;;;;;;;5039282;28;20512;-95
2021/01/18 02:21:03;;;;;;;25.67;7.05;;;;;;;;;;5022530;28;20025;-96
2021/01/18 02:26:11;;;;;;;28.67;9.00;;;;;;;;;;5013694;28;20122;-95
2021/01/18 02:28:42;;;;;;;21.70;7.63;;;;;;;;;;5015152;28;20018;-96
2021/01/18 02:31:26;;;;;;;26.13;8.17;;;;;;;;;;5021196;28;20094;-96
2021/01/18 02:33:54;;;;;;;27.57;7.80;;;;;;;;;;5015976;28;20022;-96
2021/01/18 02:36:38;;;;;;;30.07;8.30;;;;;;;;;;5014690;28;20050;-96
2021/01/18 02:39:10;;;;;;;28.57;7.07;;;;;;;;;;4995416;28;20026;-96
2021/01/18 02:41:38;;;;;;;24.75;7.00;;;;;;;;;;5002331;28;20037;-96
2021/01/18 02:44:07;;;;;;;28.97;7.53;;;;;;;;;;5015060;28;20050;-96
2021/01/18 02:46:33;;;;;;;28.83;8.03;;;;;;;;;;5015036;28;20090;-96
2021/01/18 02:49:00;;;;;;;20.80;6.70;;;;;;;;;;5014165;28;20022;-96
2021/01/18 02:51:27;;;;;;;22.50;7.33;;;;;;;;;;5014715;28;20014;-96
2021/01/18 02:53:55;;;;;;;20.33;7.23;;;;;;;;;;5014309;28;20045;-96
2021/01/18 02:56:24;;;;;;;26.97;7.47;;;;;;;;;;5014321;28;20021;-96
2021/01/18 02:58:50;;;;;;;28.73;8.00;;;;;;;;;;5013685;28;20003;-96
2021/01/18 03:01:20;;;;;;;23.87;8.40;;;;;;;;;;5016784;28;20026;-96
2021/01/18 03:04:01;;;;;;;28.07;8.37;;;;;;;;;;5016210;28;20038;-96
2021/01/18 03:06:33;;;;;;;27.47;8.57;;;;;;;;;;5017198;28;20034;-96
2021/01/18 03:08:58;;;;;;;;;;;;;;;;;;5017873;28;20018;-96
2021/01/18 03:11:30;;;;;;;23.75;7.80;;;;;;;;;;5016928;28;19921;-96
2021/01/18 03:14:10;;;;;;;24.02;7.07;;;;;;;;;;5016885;28;20022;-95
2021/01/18 03:16:38;;;;;;;26.33;8.07;;;;;;;;;;5017592;28;20030;-96
2021/01/18 03:19:04;;;;;;;27.83;8.17;;;;;;;;;;5018367;28;20026;-96
2021/01/18 03:21:30;;;;;;;23.30;7.43;;;;;;;;;;5016611;28;20034;-96
2021/01/18 03:23:55;;;;;;;31.37;8.77;;;;;;;;;;5018150;28;20046;-96
2021/01/18 03:26:23;;;;;;;31.53;8.73;;;;;;;;;;5015940;28;20014;-96
2021/01/18 03:28:49;;;;;;;27.00;8.53;;;;;;;;;;5012088;28;20015;-96
2021/01/18 03:31:14;;;;;;;28.07;8.20;;;;;;;;;;5003849;28;20116;-96
2021/01/18 03:33:39;;;;;;;24.77;8.97;;;;;;;;;;5017085;28;20021;-96
2021/01/18 03:36:05;;;;;;;26.37;8.50;;;;;;;;;;5015589;28;20034;-96
2021/01/18 03:38:30;;;;;;;27.80;8.70;;;;;;;;;;5015935;28;20072;-96
2021/01/18 03:40:55;;;;;;;24.60;7.73;;;;;;;;;;5015651;28;20022;-96
2021/01/18 03:43:21;;;;;;;27.83;8.70;;;;;;;;;;5016267;28;20026;-96
2021/01/18 03:45:47;;;;;;;21.53;7.90;;;;;;;;;;5016153;28;20086;-96
2021/01/18 03:48:12;;;;;;;29.60;8.20;;;;;;;;;;5017150;28;20023;-96
2021/01/18 03:50:39;;;;;;;24.87;9.10;;;;;;;;;;5015790;28;20030;-96
2021/01/18 03:53:04;;;;;;;28.33;8.33;;;;;;;;;;5016530;28;20030;-96
2021/01/18 03:55:30;;;;;;;23.57;7.47;;;;;;;;;;5016515;28;20041;-96
2021/01/18 03:57:55;;;;;;;21.90;8.10;;;;;;;;;;5017315;28;20053;-96
2021/01/18 04:00:24;;;;;;;20.93;7.73;;;;;;;;;;5016361;28;20014;-96
2021/01/18 04:02:51;;;;;;;33.20;8.33;;;;;;;;;;5016856;28;20086;-96
2021/01/18 04:05:16;;;;;;;27.53;8.53;;;;;;;;;;5015409;28;20006;-96
2021/01/18 04:07:42;;;;;;;26.00;8.80;;;;;;;;;;5015995;28;20469;-96
2021/01/18 04:10:08;;;;;;;20.10;8.37;;;;;;;;;;5015812;28;20026;-96
2021/01/18 04:12:33;;;;;;;27.70;8.73;;;;;;;;;;5015369;28;20026;-96
2021/01/18 04:14:58;;;;;;;26.77;9.50;;;;;;;;;;5014580;28;20030;-96
2021/01/18 04:17:24;;;;;;;26.97;9.10;;;;;;;;;;5014467;28;20026;-96
2021/01/18 04:19:49;;;;;;;27.80;9.50;;;;;;;;;;5014584;28;20121;-96
2021/01/18 04:22:14;;;;;;;31.87;9.00;;;;;;;;;;5014130;28;20081;-96
2021/01/18 04:24:40;;;;;;;21.80;8.80;;;;;;;;;;5015891;28;20053;-96
2021/01/18 04:27:06;;;;;;;33.67;8.97;;;;;;;;;;5015555;28;20026;-96
2021/01/18 04:29:31;;;;;;;23.80;9.43;;;;;;;;;;5015462;28;20018;-96
2021/01/18 04:31:57;;;;;;;20.73;8.40;;;;;;;;;;5017144;28;20029;-96
2021/01/18 04:34:22;;;;;;;27.50;9.37;;;;;;;;;;5015043;28;20018;-96
2021/01/18 04:36:48;;;;;;;28.30;9.43;;;;;;;;;;5014262;28;20042;-96
2021/01/18 04:39:14;;;;;;;27.13;9.57;;;;;;;;;;5013865;28;20053;-96
2021/01/18 04:41:40;;;;;;;29.20;10.03;;;;;;;;;;5013592;28;20027;-96
2021/01/18 04:44:06;;;;;;;32.33;9.67;;;;;;;;;;5012090;28;20085;-96
2021/01/18 04:46:36;;;;;;;38.83;10.00;;;;;;;;;;5014805;28;20019;-96
2021/01/18 04:49:01;;;;;;;28.07;8.77;;;;;;;;;;5012522;28;20085;-96
2021/01/18 04:51:27;;;;;;;25.27;9.17;;;;;;;;;;5011763;28;20022;-96
2021/01/18 04:53:54;;;;;;;28.43;9.67;;;;;;;;;;5012938;28;20197;-96
2021/01/18 04:56:40;;;;;;;21.17;9.13;;;;;;;;;;5012534;28;20021;-96
2021/01/18 04:59:08;;;;;;;31.27;10.23;;;;;;;;;;5011103;28;20034;-96
2021/01/18 05:01:35;;;;;;;24.93;8.73;;;;;;;;;;5010707;28;20050;-96
2021/01/18 05:04:06;;;;;;;31.33;10.13;;;;;;;;;;5012203;28;20038;-96
2021/01/18 05:06:45;;;;;;;33.30;9.70;;;;;;;;;;5023698;28;20018;-96
2021/01/18 05:09:13;;;;;;;33.97;9.53;;;;;;;;;;5010203;28;20019;-96
2021/01/18 05:11:39;;;;;;;25.13;9.10;;;;;;;;;;5008379;28;20041;-96
2021/01/18 05:14:05;;;;;;;26.40;9.07;;;;;;;;;;5006761;28;20018;-96
2021/01/18 05:16:34;;;;;;;28.63;9.87;;;;;;;;;;5007974;28;20018;-96
2021/01/18 05:19:06;;;;;;;31.63;11.00;;;;;;;;;;5022481;28;20018;-96
2021/01/18 05:21:32;;;;;;;28.33;9.23;;;;;;;;;;5013857;28;20018;-96
2021/01/18 05:23:57;;;;;;;28.37;9.30;;;;;;;;;;5010322;28;20018;-96
2021/01/18 05:26:27;;;;;;;28.60;8.97;;;;;;;;;;5012011;28;20180;-96
2021/01/18 05:28:54;;;;;;;26.57;9.80;;;;;;;;;;5007781;28;20034;-96
2021/01/18 05:31:28;;;;;;;29.67;9.10;;;;;;;;;;5008454;28;20050;-96
2021/01/18 05:33:53;;;;;;;29.20;9.50;;;;;;;;;;4995469;28;20133;-96
2021/01/18 05:36:39;;;;;;;26.83;9.47;;;;;;;;;;5007949;28;20109;-96
2021/01/18 05:39:08;;;;;;;29.43;8.57;;;;;;;;;;5004528;28;20026;-96
2021/01/18 05:41:34;;;;;;;25.77;9.20;;;;;;;;;;5006821;28;20022;-96
2021/01/18 05:44:00;;;;;;;33.70;9.37;;;;;;;;;;5009862;28;20497;-96
2021/01/18 05:46:26;;;;;;;40.53;10.07;;;;;;;;;;5015066;28;20018;-96
2021/01/18 05:48:52;;;;;;;36.50;10.27;;;;;;;;;;5014566;28;20525;-96
2021/01/18 05:51:19;;;;;;;25.47;9.40;;;;;;;;;;5009038;28;20492;-96
2021/01/18 05:53:44;;;;;;;30.87;9.07;;;;;;;;;;5008202;28;20033;-96
2021/01/18 05:56:19;;;;;;;29.10;9.37;;;;;;;;;;5009732;28;20018;-96
2021/01/18 05:58:45;;;;;;;26.73;8.83;;;;;;;;;;5007442;28;20081;-96
2021/01/18 06:01:10;;;;;;;24.97;9.60;;;;;;;;;;5012078;28;20025;-96
2021/01/18 06:03:36;;;;;;;27.70;10.13;;;;;;;;;;5007783;28;20046;-96
2021/01/18 06:06:02;;;;;;;29.23;9.40;;;;;;;;;;5007165;28;20354;-96
2021/01/18 06:08:27;;;;;;;28.37;9.70;;;;;;;;;;5001570;28;20447;-96
2021/01/18 06:10:57;;;;;;;31.97;10.00;;;;;;;;;;5002689;28;20176;-96
2021/01/18 06:13:26;;;;;;;24.83;9.00;;;;;;;;;;5009399;28;20029;-96
2021/01/18 06:16:01;;;;;;;32.27;9.40;;;;;;;;;;5007853;28;20029;-96
2021/01/18 06:18:26;;;;;;;36.03;9.00;;;;;;;;;;5009858;28;20072;-96
2021/01/18 06:20:56;;;;;;;31.97;9.47;;;;;;;;;;5008530;28;20022;-96
2021/01/18 06:23:21;;;;;;;33.33;10.33;;;;;;;;;;5010272;28;20002;-96
2021/01/18 06:25:48;;;;;;;34.10;10.90;;;;;;;;;;5023066;28;20049;-96
2021/01/18 06:28:30;;;;;;;34.87;9.03;;;;;;;;;;5032711;28;20033;-96
2021/01/18 06:31:03;;;;;;;34.10;11.53;;;;;;;;;;5030782;28;20018;-96
2021/01/18 06:33:35;;;;;;;31.80;8.63;;;;;;;;;;5012860;28;20026;-96
2021/01/18 06:36:00;;;;;;;;;;;;;;;;;;5010219;28;20026;-96
2021/01/18 06:38:31;;;;;;;29.20;9.45;;;;;;;;;;5010116;28;19913;-96
2021/01/18 06:40:56;;;;;;;30.23;9.47;;;;;;;;;;5010121;28;20019;-96
2021/01/18 06:43:22;;;;;;;29.40;9.07;;;;;;;;;;5012688;28;20086;-96
2021/01/18 06:45:48;;;;;;;36.00;10.50;;;;;;;;;;5013049;28;20406;-96
2021/01/18 06:48:13;;;;;;;28.23;9.50;;;;;;;;;;5010743;28;20022;-96
2021/01/18 06:50:40;;;;;;;31.10;8.90;;;;;;;;;;5009422;28;20029;-96
2021/01/18 06:53:14;;;;;;;27.47;9.00;;;;;;;;;;5011812;28;20098;-96
2021/01/18 06:55:44;;;;;;;27.83;8.73;;;;;;;;;;5012177;28;20094;-96
2021/01/18 06:58:28;;;;;;;32.93;9.57;;;;;;;;;;4999794;28;20050;-96
2021/01/18 07:00:58;;;;;;;29.33;10.17;;;;;;;;;;5012502;28;20049;-96
2021/01/18 07:11:05;;;;;;;;;;;;;;;;;;4987419;28;20062;-96
2021/01/18 07:13:31;;;;;;;25.58;8.80;;;;;;;;;;5003041;28;19910;-96
2021/01/18 07:16:01;;;;;;;24.33;8.40;;;;;;;;;;4971725;28;20019;-92
2021/01/18 07:18:30;;;;;;;29.90;9.63;;;;;;;;;;5010001;28;20065;-96
2021/01/18 07:21:01;;;;;;;29.90;9.43;;;;;;;;;;5010352;28;20049;-96
2021/01/18 07:23:27;;;;;;;29.57;9.10;;;;;;;;;;4992783;28;20489;-96
2021/01/18 07:26:13;;;;;;;23.13;7.93;;;;;;;;;;4989680;28;20015;-95
2021/01/18 07:28:40;;;;;;;26.63;7.90;;;;;;;;;;4981917;28;20093;-95
2021/01/18 07:31:05;;;;;;;26.93;8.60;;;;;;;;;;4974013;28;20041;-96
2021/01/18 07:33:31;;;;;;;26.40;9.20;;;;;;;;;;4974684;28;20093;-96
2021/01/18 07:35:57;;;;;;;35.70;9.23;;;;;;;;;;4976801;28;20023;-96
2021/01/18 07:38:27;;;;;;;33.37;8.63;;;;;;;;;;4983266;28;20030;-95
2021/01/18 07:41:07;;;;;;;30.70;7.87;;;;;;;;;;4972063;28;20125;-95
2021/01/18 07:43:36;;;;;;;26.17;8.40;;;;;;;;;;4973237;28;20109;-96
2021/01/18 07:46:37;;;;;;;31.10;8.90;;;;;;;;;;4974454;28;20019;-96
2021/01/18 07:49:14;;;;;;;24.53;7.90;;;;;;;;;;4986095;28;20018;-94
2021/01/18 07:51:39;;;;;;;25.83;7.93;;;;;;;;;;4979668;28;20033;-94
2021/01/18 07:54:05;;;;;;;27.60;8.30;;;;;;;;;;4977170;28;20102;-95
2021/01/18 07:56:31;;;;;;;27.47;8.23;;;;;;;;;;4976805;28;20018;-95
2021/01/18 07:59:00;;;;;;;20.17;9.10;;;;;;;;;;4976928;28;20023;-95
2021/01/18 08:01:29;;;;;;;25.17;8.00;;;;;;;;;;4976563;28;20077;-95
2021/01/18 08:04:14;;;;;;;28.37;8.70;;;;;;;;;;4976574;28;20050;-96
2021/01/18 08:07:06;;;;;;;24.47;8.67;;;;;;;;;;4990753;28;20011;-95
2021/01/18 08:09:32;;;;;;;29.23;7.87;;;;;;;;;;4975040;28;20501;-95
2021/01/18 08:12:15;;;;;;;25.93;7.47;;;;;;;;;;4980728;28;20125;-94
2021/01/18 08:14:48;;;;;;;27.27;8.30;;;;;;;;;;4993829;28;20031;-95
2021/01/18 08:17:13;;;;;;;;;;;;;;;;;;4989566;28;20023;-95
2021/01/18 08:19:38;;;;;;;28.50;8.67;;;;;;;;;;4987749;28;19964;-95
2021/01/18 08:22:05;;;;;;;26.03;8.67;;;;;;;;;;4976045;28;20276;-95
2021/01/18 08:24:30;;;;;;;30.43;10.03;;;;;;;;;;4976211;28;20026;-96
2021/01/18 08:26:55;;;;;;;26.37;10.23;;;;;;;;;;4977082;28;20375;-96
2021/01/18 08:29:32;;;;;;;29.33;9.83;;;;;;;;;;4992244;28;20054;-95
2021/01/18 08:32:16;;;;;;;32.47;10.03;;;;;;;;;;4990887;28;20170;-95
2021/01/18 08:34:42;;;;;;;30.90;8.83;;;;;;;;;;4991811;28;20031;-95
2021/01/18 08:37:08;;;;;;;25.23;7.83;;;;;;;;;;4977210;28;20018;-95
2021/01/18 08:39:35;;;;;;;31.07;9.93;;;;;;;;;;4975882;28;20062;-94
2021/01/18 08:42:01;;;;;;;24.90;8.77;;;;;;;;;;4975711;28;20050;-94
2021/01/18 08:44:30;;;;;;;34.43;9.60;;;;;;;;;;4977304;28;20015;-95
2021/01/18 08:46:55;;;;;;;35.23;10.30;;;;;;;;;;4976258;28;20500;-94
2021/01/18 08:49:22;;;;;;;32.00;9.30;;;;;;;;;;4995119;28;20031;-96
2021/01/18 08:51:50;;;;;;;29.13;9.87;;;;;;;;;;4966849;28;20058;-95
2021/01/18 08:54:31;;;;;;;27.87;8.80;;;;;;;;;;4976582;28;20027;-95
2021/01/18 08:57:28;;;;;;;29.63;9.20;;;;;;;;;;4981612;28;20023;-95
2021/01/18 09:00:08;;;;;;;27.43;8.70;;;;;;;;;;4972768;28;20027;-95
2021/01/18 09:02:33;;;;;;;28.97;9.07;;;;;;;;;;4989061;28;20391;-94
2021/01/18 09:05:18;;;;;;;29.87;9.67;;;;;;;;;;4978310;28;20019;-94
2021/01/18 09:07:43;;;;;;;21.33;8.30;;;;;;;;;;4974888;28;20371;-95
2021/01/18 09:10:13;;;;;;;23.03;8.33;;;;;;;;;;4975207;28;20069;-95
2021/01/18 09:12:39;;;;;;;29.50;8.70;;;;;;;;;;4975326;28;20015;-95
2021/01/18 09:15:05;;;;;;;25.80;8.80;;;;;;;;;;4992628;28;20069;-95
2021/01/18 09:17:30;;;;;;;32.97;9.00;;;;;;;;;;4977574;28;20021;-96
2021/01/18 09:19:55;;;;;;;28.07;8.37;;;;;;;;;;4981376;28;20015;-94
2021/01/18 09:22:21;;;;;;;27.10;8.50;;;;;;;;;;4978789;28;20018;-95
2021/01/18 09:24:47;;;;;;;24.43;8.13;;;;;;;;;;4978097;28;20027;-94
2021/01/18 09:27:13;;;;;;;30.17;7.83;;;;;;;;;;4978926;28;20050;-94
2021/01/18 09:29:38;;;;;;;27.47;7.80;;;;;;;;;;4977954;28;20459;-95
2021/01/18 09:32:04;;;;;;;37.40;8.23;;;;;;;;;;4979021;28;20054;-94
2021/01/18 09:34:30;;;;;;;25.20;7.63;;;;;;;;;;4979444;28;20050;-95
2021/01/18 09:37:05;;;;;;;30.13;7.83;;;;;;;;;;4979309;28;20026;-94
2021/01/18 09:39:30;;;;;;;22.43;7.27;;;;;;;;;;4977078;28;20026;-94
2021/01/18 09:41:56;;;;;;;24.47;7.73;;;;;;;;;;4980019;28;20031;-94
2021/01/18 09:44:21;;;;;;;27.30;7.60;;;;;;;;;;4982830;28;20089;-95
2021/01/18 09:46:48;;;;;;;26.40;8.33;;;;;;;;;;4986446;28;20027;-95
2021/01/18 09:49:23;;;;;;;26.90;7.00;;;;;;;;;;4979358;28;20383;-96
2021/01/18 09:51:49;;;;;;;25.83;6.97;;;;;;;;;;4983112;28;20034;-94
2021/01/18 09:54:14;;;;;;;30.17;7.77;;;;;;;;;;4983222;28;20043;-95
2021/01/18 09:56:40;;;;;;;24.03;6.43;;;;;;;;;;4980876;28;20082;-96
2021/01/18 09:59:06;;;;;;;36.00;7.60;;;;;;;;;;4982349;28;20033;-93
2021/01/18 10:01:35;;;;;;;31.53;9.03;;;;;;;;;;4966489;28;20026;-94
2021/01/18 10:04:03;;;;;;;32.43;7.97;;;;;;;;;;4977189;28;20482;-93
2021/01/18 10:06:29;;;;;;;26.50;8.30;;;;;;;;;;4974114;28;20014;-92
2021/01/18 10:09:01;;;;;;;24.53;7.07;;;;;;;;;;4974062;28;20023;-93
2021/01/18 10:11:38;;;;;;;27.48;7.82;;;;;;;;;;4974254;28;20462;-92
2021/01/18 10:14:03;;;;;;;33.00;9.00;;;;;;;;;;4975302;28;20027;-94
2021/01/18 10:16:28;;;;;;;29.20;7.87;;;;;;;;;;4973735;28;20042;-93
2021/01/18 10:18:53;;;;;;;29.83;6.23;;;;;;;;;;4974051;28;20018;-94
2021/01/18 10:21:18;;;;;;;34.20;8.43;;;;;;;;;;4973724;28;20386;-91
2021/01/18 10:23:47;;;;;;;28.77;6.67;;;;;;;;;;4973936;28;20015;-94
2021/01/18 10:26:26;;;;;;;28.63;8.00;;;;;;;;;;4982072;28;20375;-92
2021/01/18 10:28:54;;;;;;;30.97;8.07;;;;;;;;;;4973906;28;20015;-93
2021/01/18 10:31:20;;;;;;;37.07;8.20;;;;;;;;;;4990021;28;20023;-93
2021/01/18 10:33:45;;;;;;;30.43;7.23;;;;;;;;;;4973959;28;20347;-92
2021/01/18 10:36:29;;;;;;;27.83;7.40;;;;;;;;;;4990139;28;20023;-93
2021/01/18 10:38:55;;;;;;;25.70;6.50;;;;;;;;;;4973670;28;20078;-92
2021/01/18 10:41:21;;;;;;;26.17;7.37;;;;;;;;;;4977884;28;20022;-94
2021/01/18 10:43:46;;;;;;;23.50;5.97;;;;;;;;;;4973747;28;20054;-92
2021/01/18 10:46:14;;;;;;;20.10;5.83;;;;;;;;;;4989619;28;20014;-93
2021/01/18 10:48:39;;;;;;;22.43;6.43;;;;;;;;;;4973531;28;20034;-93
2021/01/18 10:51:04;;;;;;;22.43;6.13;;;;;;;;;;4974840;28;20015;-92
2021/01/18 10:53:30;;;;;;;24.53;6.53;;;;;;;;;;4973708;28;20027;-92
2021/01/18 10:56:12;;;;;;;24.97;7.00;;;;;;;;;;4973473;28;20019;-93
2021/01/18 10:58:39;;;;;;;19.52;6.30;;;;;;;;;;4973631;28;20030;-93
2021/01/18 11:01:12;;;;;;;23.20;6.03;;;;;;;;;;4973758;28;20066;-93
2021/01/18 11:03:38;;;;;;;26.00;5.85;;;;;;;;;;4979452;28;20125;-93
2021/01/18 11:06:13;;;;;;;29.40;7.40;;;;;;;;;;4974517;28;20501;-93
2021/01/18 11:08:39;;;;;;;33.57;6.77;;;;;;;;;;4973680;28;20011;-93
2021/01/18 11:11:17;;;;;;;22.87;5.93;;;;;;;;;;4973287;28;20077;-93
2021/01/18 11:13:44;;;;;;;23.07;5.63;;;;;;;;;;4973022;28;20030;-94
2021/01/18 11:16:13;;;;;;;22.83;5.70;;;;;;;;;;4973106;28;20037;-94
2021/01/18 11:18:38;;;;;;;23.93;5.47;;;;;;;;;;4973474;28;20035;-93
2021/01/18 11:21:03;;;;;;;24.93;5.17;;;;;;;;;;4975704;28;20046;-93
2021/01/18 11:23:29;;;;;;;29.20;5.77;;;;;;;;;;4976979;28;20065;-92
2021/01/18 11:25:54;;;;;;;17.97;4.87;;;;;;;;;;4977104;28;20477;-92
2021/01/18 11:28:19;;;;;;;21.97;5.37;;;;;;;;;;4977043;28;20170;-92
2021/01/18 11:30:45;;;;;;;23.80;6.10;;;;;;;;;;4982137;28;20058;-93
2021/01/18 11:33:10;;;;;;;26.73;5.83;;;;;;;;;;4977054;28;20455;-93
2021/01/18 11:35:39;;;;;;;26.13;5.13;;;;;;;;;;4969719;28;20021;-92
2021/01/18 11:38:05;;;;;;;20.90;4.87;;;;;;;;;;4986380;28;20093;-92
2021/01/18 11:40:30;;;;;;;24.20;6.00;;;;;;;;;;4976770;28;20026;-96
2021/01/18 11:42:59;;;;;;;33.83;6.10;;;;;;;;;;4982494;28;20018;-92
2021/01/18 11:45:24;;;;;;;25.43;5.50;;;;;;;;;;4977335;28;20057;-93
2021/01/18 11:47:50;;;;;;;25.00;5.40;;;;;;;;;;4977549;28;20018;-92
2021/01/18 11:50:15;;;;;;;22.57;6.33;;;;;;;;;;4976976;28;20506;-92
2021/01/18 11:52:41;;;;;;;22.00;5.60;;;;;;;;;;4976679;28;20118;-92
2021/01/18 11:55:06;;;;;;;25.40;5.57;;;;;;;;;;4977243;28;20113;-92
2021/01/18 11:57:31;;;;;;;20.47;5.37;;;;;;;;;;4988450;28;20061;-92
2021/01/18 11:59:57;;;;;;;28.17;5.90;;;;;;;;;;4993073;28;20113;-92
2021/01/18 12:02:22;;;;;;;29.07;6.50;;;;;;;;;;4976781;28;20029;-92
2021/01/18 12:04:47;;;;;;;26.43;5.97;;;;;;;;;;4976731;28;20011;-93
2021/01/18 12:07:12;;;;;;;27.10;5.40;;;;;;;;;;4976556;28;20090;-92
2021/01/18 12:09:37;;;;;;;29.87;5.67;;;;;;;;;;4976336;28;20030;-94
2021/01/18 12:12:03;;;;;;;25.40;5.67;;;;;;;;;;4976907;28;20466;-92
2021/01/18 12:14:28;;;;;;;24.37;6.77;;;;;;;;;;4977907;28;20359;-93
2021/01/18 12:16:53;;;;;;;22.87;5.70;;;;;;;;;;4976234;28;20107;-91
2021/01/18 12:19:19;;;;;;;20.73;5.30;;;;;;;;;;4976051;28;20130;-92
2021/01/18 12:21:44;;;;;;;22.77;6.33;;;;;;;;;;4976007;28;20050;-93
2021/01/18 12:24:09;;;;;;;19.57;5.27;;;;;;;;;;4975981;28;20065;-89
2021/01/18 12:26:34;;;;;;;14.37;4.33;;;;;;;;;;4975728;28;20018;-89
2021/01/18 12:29:00;;;;;;;20.37;4.70;;;;;;;;;;4975884;28;20034;-89
2021/01/18 12:31:26;;;;;;;35.13;5.57;;;;;;;;;;4974451;28;20023;-90
2021/01/18 12:33:52;;;;;;;19.20;5.30;;;;;;;;;;4975458;28;20534;-88
2021/01/18 12:36:18;;;;;;;20.57;4.83;;;;;;;;;;4986822;28;20029;-88
2021/01/18 12:38:43;;;;;;;22.83;6.27;;;;;;;;;;4976978;28;20466;-89
2021/01/18 12:41:08;;;;;;;23.20;5.40;;;;;;;;;;4991627;28;20035;-89
2021/01/18 12:43:33;;;;;;;24.77;5.03;;;;;;;;;;4975591;28;20034;-89
2021/01/18 12:46:00;;;;;;;18.87;4.93;;;;;;;;;;4975034;28;20034;-89
2021/01/18 12:48:25;;;;;;;23.17;6.00;;;;;;;;;;4975178;28;20018;-88
2021/01/18 12:50:51;;;;;;;20.20;4.37;;;;;;;;;;4975127;28;20097;-89
2021/01/18 12:55:59;;;;;;;17.27;4.63;;;;;;;;;;4976688;28;20026;-90
2021/01/18 12:58:25;;;;;;;18.87;5.20;;;;;;;;;;4975764;28;20461;-89
2021/01/18 13:00:50;;;;;;;24.07;5.53;;;;;;;;;;4974723;28;20018;-89
2021/01/18 13:03:15;;;;;;;18.00;5.10;;;;;;;;;;4974707;28;20019;-89
2021/01/18 13:05:40;;;;;;;22.40;5.23;;;;;;;;;;4974730;28;20023;-89
2021/01/18 13:08:06;;;;;;;28.27;5.50;;;;;;;;;;4990380;28;20014;-89
2021/01/18 13:10:31;;;;;;;16.87;4.67;;;;;;;;;;4974412;28;20027;-89
2021/01/18 13:12:56;;;;;;;16.07;4.90;;;;;;;;;;4973897;28;20503;-89
2021/01/18 13:15:21;;;;;;;15.40;4.27;;;;;;;;;;4975188;28;20549;-89
2021/01/18 13:17:49;;;;;;;17.73;4.30;;;;;;;;;;4974688;28;20019;-90
2021/01/18 13:20:15;;;;;;;21.30;5.70;;;;;;;;;;4958322;28;20474;-89
2021/01/18 13:22:40;;;;;;;17.10;5.07;;;;;;;;;;4973777;28;20114;-90
2021/01/18 13:25:06;;;;;;;20.00;4.43;;;;;;;;;;4973762;28;20023;-89
2021/01/18 13:27:31;;;;;;;21.93;5.77;;;;;;;;;;4974130;28;20054;-89
2021/01/18 13:29:56;;;;;;;22.33;4.57;;;;;;;;;;4974197;28;20030;-90
2021/01/18 13:32:22;;;;;;;20.20;4.40;;;;;;;;;;4973181;28;20387;-90
2021/01/18 13:34:47;;;;;;;20.70;5.30;;;;;;;;;;4974478;28;20414;-90
2021/01/18 13:37:12;;;;;;;18.17;4.70;;;;;;;;;;4974206;28;20045;-90
2021/01/18 13:39:37;;;;;;;22.77;4.67;;;;;;;;;;4974340;28;20019;-90
2021/01/18 13:42:03;;;;;;;16.07;4.57;;;;;;;;;;4974204;28;20441;-90
2021/01/18 13:44:28;;;;;;;27.40;5.20;;;;;;;;;;4973905;28;20015;-89
2021/01/18 13:46:53;;;;;;;16.43;5.17;;;;;;;;;;4974303;28;20011;-89
2021/01/18 13:49:18;;;;;;;19.90;4.97;;;;;;;;;;4973985;28;20467;-90
2021/01/18 13:51:44;;;;;;;22.00;4.90;;;;;;;;;;4975474;28;20019;-89
2021/01/18 13:54:09;;;;;;;25.70;4.97;;;;;;;;;;4975167;28;20416;-88
2021/01/18 13:56:34;;;;;;;16.00;4.90;;;;;;;;;;4974223;28;20018;-89
2021/01/18 13:58:59;;;;;;;19.67;4.40;;;;;;;;;;4974301;28;20477;-89
2021/01/18 14:01:26;;;;;;;24.30;5.07;;;;;;;;;;4973884;28;20023;-90
2021/01/18 14:03:58;;;;;;;20.33;5.27;;;;;;;;;;4975387;28;20031;-89
2021/01/18 14:06:37;;;;;;;27.30;5.68;;;;;;;;;;4964977;28;20542;-90
2021/01/18 14:09:07;;;;;;;18.30;4.93;;;;;;;;;;4972690;28;20122;-89
2021/01/18 14:11:37;;;;;;;19.80;4.27;;;;;;;;;;4973807;28;20057;-90
2021/01/18 14:14:02;;;;;;;24.60;5.07;;;;;;;;;;4975062;28;20026;-90
2021/01/18 14:16:27;;;;;;;19.53;5.50;;;;;;;;;;4973528;28;20053;-90
2021/01/18 14:18:53;;;;;;;22.87;4.67;;;;;;;;;;4973881;28;20058;-90
2021/01/18 14:21:18;;;;;;;28.10;5.67;;;;;;;;;;4973350;28;20046;-90
2021/01/18 14:23:43;;;;;;;24.53;5.57;;;;;;;;;;4973404;28;20441;-89
2021/01/18 14:26:09;;;;;;;24.90;5.43;;;;;;;;;;4973507;28;20031;-89
2021/01/18 14:28:34;;;;;;;26.13;5.60;;;;;;;;;;4973552;28;20021;-90
2021/01/18 14:30:59;;;;;;;19.97;5.07;;;;;;;;;;4973352;28;20117;-90
2021/01/18 14:33:24;;;;;;;24.10;4.93;;;;;;;;;;4972840;28;20054;-88
2021/01/18 14:35:50;;;;;;;26.63;6.20;;;;;;;;;;4973302;28;20035;-89
2021/01/18 14:38:15;;;;;;;27.07;5.30;;;;;;;;;;4972806;28;20030;-89
2021/01/18 14:40:40;;;;;;;16.53;4.83;;;;;;;;;;4973792;28;20031;-87
2021/01/18 14:43:06;;;;;;;17.50;4.90;;;;;;;;;;4977520;28;20045;-87
2021/01/18 14:45:31;;;;;;;17.40;5.17;;;;;;;;;;4972551;28;20018;-88
2021/01/18 14:47:57;;;;;;;22.43;5.47;;;;;;;;;;4975319;28;20025;-88